createdAt,value
2019-02-25T00:00:04.612Z,8.8
2019-02-25T00:01:06.115Z,8.8
2019-02-25T00:02:07.500Z,8.9
2019-02-25T00:03:08.890Z,8.9
2019-02-25T00:04:10.277Z,8.8
2019-02-25T00:05:11.665Z,8.9
2019-02-25T00:06:13.060Z,8.8
2019-02-25T00:07:14.446Z,8.8
2019-02-25T00:08:15.851Z,8.8
2019-02-25T00:09:17.237Z,8.8
2019-02-25T00:10:18.621Z,8.8
2019-02-25T00:11:20.011Z,8.8
2019-02-25T00:12:21.399Z,8.8
2019-02-25T00:13:22.784Z,8.8
2019-02-25T00:14:24.174Z,8.8
2019-02-25T00:15:25.557Z,8.8
2019-02-25T00:16:26.946Z,8.7
2019-02-25T00:17:28.340Z,8.8
2019-02-25T00:18:29.727Z,8.8
2019-02-25T00:19:31.116Z,8.8
2019-02-25T00:20:32.499Z,8.7
2019-02-25T00:21:33.881Z,8.7
2019-02-25T00:22:35.267Z,8.6
2019-02-25T00:23:36.656Z,8.6
2019-02-25T00:24:38.041Z,8.6
2019-02-25T00:25:39.432Z,8.6
2019-02-25T00:26:40.823Z,8.6
2019-02-25T00:27:42.216Z,8.6
2019-02-25T00:28:43.607Z,8.5
2019-02-25T00:29:44.997Z,8.5
2019-02-25T00:30:46.383Z,8.6
2019-02-25T00:31:47.771Z,8.5
2019-02-25T00:32:49.160Z,8.5
2019-02-25T00:33:50.548Z,8.5
2019-02-25T00:34:51.935Z,8.5
2019-02-25T00:35:53.323Z,8.5
2019-02-25T00:36:54.703Z,8.5
2019-02-25T00:37:56.093Z,8.5
2019-02-25T00:38:57.490Z,8.4
2019-02-25T00:39:58.873Z,8.3
2019-02-25T00:41:00.265Z,8.4
2019-02-25T00:42:01.657Z,8.4
2019-02-25T00:43:03.045Z,8.4
2019-02-25T00:44:04.431Z,8.3
2019-02-25T00:45:05.828Z,8.3
2019-02-25T00:46:07.215Z,8.3
2019-02-25T00:47:08.600Z,8.4
2019-02-25T00:48:09.990Z,8.4
2019-02-25T00:49:11.381Z,8.4
2019-02-25T00:50:12.815Z,8.3
2019-02-25T00:51:14.238Z,8.4
2019-02-25T00:52:15.633Z,8.4
2019-02-25T00:53:17.021Z,8.3
2019-02-25T00:54:18.416Z,8.3
2019-02-25T00:55:19.804Z,8.4
2019-02-25T00:56:21.191Z,8.4
2019-02-25T00:57:22.595Z,8.3
2019-02-25T00:58:23.965Z,8.4
2019-02-25T00:59:25.383Z,8.3
2019-02-25T01:00:26.756Z,8.3
2019-02-25T01:01:28.141Z,8.3
2019-02-25T01:02:29.530Z,8.3
2019-02-25T01:03:30.920Z,8.2
2019-02-25T01:04:32.301Z,8.3
2019-02-25T01:05:33.689Z,8.3
2019-02-25T01:06:35.075Z,8.3
2019-02-25T01:07:36.463Z,8.4
2019-02-25T01:08:37.854Z,8.3
2019-02-25T01:09:39.270Z,8.3
2019-02-25T01:10:40.666Z,8.3
2019-02-25T01:11:42.047Z,8.4
2019-02-25T01:12:43.441Z,8.3
2019-02-25T01:13:44.886Z,8.3
2019-02-25T01:14:46.276Z,8.3
2019-02-25T01:15:47.667Z,8.3
2019-02-25T01:16:49.052Z,8.3
2019-02-25T01:17:50.438Z,8.3
2019-02-25T01:18:51.828Z,8.3
2019-02-25T01:19:53.218Z,8.3
2019-02-25T01:20:54.600Z,8.3
2019-02-25T01:21:55.987Z,8.3
2019-02-25T01:22:57.382Z,8.3
2019-02-25T01:23:58.771Z,8.3
2019-02-25T01:25:00.297Z,8.2
2019-02-25T01:26:01.513Z,8.3
2019-02-25T01:27:02.896Z,8.3
2019-02-25T01:28:04.297Z,8.2
2019-02-25T01:29:05.690Z,8.2
2019-02-25T01:30:07.097Z,8.2
2019-02-25T01:31:08.490Z,8.3
2019-02-25T01:32:09.879Z,8.2
2019-02-25T01:33:11.263Z,8.3
2019-02-25T01:34:12.653Z,8.3
2019-02-25T01:35:14.037Z,8.3
2019-02-25T01:36:15.438Z,8.3
2019-02-25T01:37:16.835Z,8.2
2019-02-25T01:38:18.226Z,8.3
2019-02-25T01:39:19.614Z,8.2
2019-02-25T01:40:20.999Z,8.3
2019-02-25T01:41:22.387Z,8.3
2019-02-25T01:42:23.887Z,8.2
2019-02-25T01:43:25.290Z,8.2
2019-02-25T01:44:26.683Z,8.2
2019-02-25T01:45:28.078Z,8.2
2019-02-25T01:46:29.472Z,8.2
2019-02-25T01:47:30.867Z,8.2
2019-02-25T01:48:32.264Z,8.2
2019-02-25T01:49:33.664Z,8.1
2019-02-25T01:50:35.051Z,8.1
2019-02-25T01:51:36.437Z,8.1
2019-02-25T01:52:37.834Z,8.1
2019-02-25T01:53:39.233Z,8.1
2019-02-25T01:54:40.625Z,8.0
2019-02-25T01:55:42.008Z,8.0
2019-02-25T01:56:43.391Z,8.0
2019-02-25T01:57:44.782Z,8.0
2019-02-25T01:58:46.174Z,7.9
2019-02-25T01:59:47.565Z,7.9
2019-02-25T02:00:48.952Z,7.8
2019-02-25T02:01:50.344Z,7.9
2019-02-25T02:02:51.730Z,7.9
2019-02-25T02:03:53.132Z,7.9
2019-02-25T02:04:54.512Z,7.9
2019-02-25T02:05:55.901Z,7.8
2019-02-25T02:06:57.282Z,7.7
2019-02-25T02:07:58.676Z,7.8
2019-02-25T02:09:00.058Z,7.8
2019-02-25T02:10:01.446Z,7.7
2019-02-25T02:11:02.835Z,7.7
2019-02-25T02:12:04.221Z,7.7
2019-02-25T02:13:14.021Z,7.6
2019-02-25T02:14:06.958Z,7.6
2019-02-25T02:15:08.360Z,7.6
2019-02-25T02:16:09.751Z,7.6
2019-02-25T02:17:11.131Z,7.6
2019-02-25T02:18:12.513Z,7.6
2019-02-25T02:19:13.903Z,7.5
2019-02-25T02:20:15.292Z,7.5
2019-02-25T02:21:16.754Z,7.5
2019-02-25T02:22:18.140Z,7.5
2019-02-25T02:23:19.527Z,7.5
2019-02-25T02:24:20.911Z,7.4
2019-02-25T02:25:22.309Z,7.5
2019-02-25T02:26:23.694Z,7.4
2019-02-25T02:27:25.096Z,7.4
2019-02-25T02:28:26.482Z,7.4
2019-02-25T02:29:27.868Z,7.4
2019-02-25T02:30:29.253Z,7.4
2019-02-25T02:31:30.636Z,7.4
2019-02-25T02:32:32.024Z,7.4
2019-02-25T02:33:33.502Z,7.3
2019-02-25T02:34:34.857Z,7.3
2019-02-25T02:35:36.246Z,7.3
2019-02-25T02:36:37.666Z,7.3
2019-02-25T02:37:39.060Z,7.4
2019-02-25T02:38:40.449Z,7.3
2019-02-25T02:39:41.832Z,7.3
2019-02-25T02:40:43.219Z,7.3
2019-02-25T02:41:44.606Z,7.2
2019-02-25T02:42:45.996Z,7.2
2019-02-25T02:43:47.382Z,7.2
2019-02-25T02:44:48.774Z,7.2
2019-02-25T02:45:50.159Z,7.2
2019-02-25T02:46:51.549Z,7.3
2019-02-25T02:47:52.939Z,7.2
2019-02-25T02:48:54.338Z,7.3
2019-02-25T02:49:55.734Z,7.1
2019-02-25T02:50:57.128Z,7.3
2019-02-25T02:51:58.509Z,7.1
2019-02-25T02:52:59.906Z,7.1
2019-02-25T02:54:01.299Z,7.1
2019-02-25T02:55:02.694Z,7.1
2019-02-25T02:56:04.084Z,7.1
2019-02-25T02:57:05.488Z,7.1
2019-02-25T02:58:06.887Z,7.1
2019-02-25T02:59:08.257Z,7.1
2019-02-25T03:00:09.670Z,7.1
2019-02-25T03:01:11.024Z,7.0
2019-02-25T03:02:12.414Z,7.1
2019-02-25T03:03:13.808Z,7.1
2019-02-25T03:04:15.195Z,7.0
2019-02-25T03:05:16.608Z,7.0
2019-02-25T03:06:17.977Z,7.1
2019-02-25T03:07:19.364Z,7.1
2019-02-25T03:08:20.749Z,7.0
2019-02-25T03:09:22.139Z,7.1
2019-02-25T03:10:23.524Z,7.0
2019-02-25T03:11:24.911Z,7.1
2019-02-25T03:12:26.297Z,7.1
2019-02-25T03:13:27.683Z,7.1
2019-02-25T03:14:29.078Z,7.0
2019-02-25T03:15:30.472Z,7.1
2019-02-25T03:16:31.854Z,7.0
2019-02-25T03:17:33.238Z,7.0
2019-02-25T03:18:34.620Z,7.0
2019-02-25T03:19:36.012Z,7.0
2019-02-25T03:20:37.390Z,7.0
2019-02-25T03:21:38.783Z,6.9
2019-02-25T03:22:40.170Z,6.9
2019-02-25T03:23:41.572Z,7.0
2019-02-25T03:24:43.047Z,6.9
2019-02-25T03:25:44.463Z,6.8
2019-02-25T03:26:45.851Z,6.8
2019-02-25T03:27:47.243Z,6.9
2019-02-25T03:28:48.636Z,6.9
2019-02-25T03:29:50.020Z,6.9
2019-02-25T03:30:51.411Z,6.9
2019-02-25T03:31:52.903Z,6.9
2019-02-25T03:32:54.323Z,6.9
2019-02-25T03:33:55.677Z,6.9
2019-02-25T03:34:57.065Z,7.0
2019-02-25T03:35:58.450Z,7.0
2019-02-25T03:36:59.835Z,7.0
2019-02-25T03:38:01.226Z,7.0
2019-02-25T03:39:02.621Z,7.0
2019-02-25T03:40:04.040Z,6.9
2019-02-25T03:41:05.496Z,7.0
2019-02-25T03:42:06.883Z,6.9
2019-02-25T03:43:08.274Z,6.9
2019-02-25T03:44:09.659Z,6.9
2019-02-25T03:45:11.047Z,7.0
2019-02-25T03:46:12.436Z,6.9
2019-02-25T03:47:13.823Z,6.9
2019-02-25T03:48:15.213Z,6.8
2019-02-25T03:49:16.599Z,6.9
2019-02-25T03:50:17.982Z,6.8
2019-02-25T03:51:19.381Z,6.9
2019-02-25T03:52:20.774Z,6.8
2019-02-25T03:53:22.165Z,6.7
2019-02-25T03:54:23.554Z,6.7
2019-02-25T03:55:24.941Z,6.7
2019-02-25T03:56:26.322Z,6.7
2019-02-25T03:57:27.754Z,6.8
2019-02-25T03:58:29.204Z,6.7
2019-02-25T03:59:30.489Z,6.7
2019-02-25T04:00:31.880Z,6.7
2019-02-25T04:01:33.274Z,6.7
2019-02-25T04:02:34.664Z,6.7
2019-02-25T04:03:36.050Z,6.6
2019-02-25T04:04:37.437Z,6.7
2019-02-25T04:05:38.855Z,6.7
2019-02-25T04:06:40.246Z,6.7
2019-02-25T04:07:41.658Z,6.6
2019-02-25T04:08:43.040Z,6.6
2019-02-25T04:09:44.429Z,6.5
2019-02-25T04:10:45.822Z,6.6
2019-02-25T04:11:47.208Z,6.6
2019-02-25T04:12:48.599Z,6.5
2019-02-25T04:13:49.987Z,6.6
2019-02-25T04:14:51.370Z,6.6
2019-02-25T04:15:52.818Z,6.6
2019-02-25T04:16:54.232Z,6.5
2019-02-25T04:17:55.622Z,6.6
2019-02-25T04:18:57.010Z,6.6
2019-02-25T04:19:58.397Z,6.5
2019-02-25T04:20:59.783Z,6.6
2019-02-25T04:22:01.180Z,6.5
2019-02-25T04:23:02.572Z,6.5
2019-02-25T04:24:03.958Z,6.6
2019-02-25T04:25:05.343Z,6.5
2019-02-25T04:26:06.725Z,6.5
2019-02-25T04:27:08.114Z,6.5
2019-02-25T04:28:09.497Z,6.5
2019-02-25T04:29:10.885Z,6.4
2019-02-25T04:30:12.279Z,6.4
2019-02-25T04:31:13.660Z,6.4
2019-02-25T04:32:15.042Z,6.4
2019-02-25T04:33:16.428Z,6.4
2019-02-25T04:34:17.813Z,6.4
2019-02-25T04:35:19.202Z,6.3
2019-02-25T04:36:20.587Z,6.5
2019-02-25T04:37:21.980Z,6.3
2019-02-25T04:38:23.380Z,6.5
2019-02-25T04:39:24.760Z,6.3
2019-02-25T04:40:26.147Z,6.3
2019-02-25T04:41:27.535Z,6.3
2019-02-25T04:42:28.923Z,6.3
2019-02-25T04:43:30.317Z,6.4
2019-02-25T04:44:31.704Z,6.3
2019-02-25T04:45:33.108Z,6.3
2019-02-25T04:46:34.485Z,6.3
2019-02-25T04:47:35.874Z,6.3
2019-02-25T04:48:37.267Z,6.3
2019-02-25T04:49:38.651Z,6.2
2019-02-25T04:50:40.033Z,6.3
2019-02-25T04:51:41.423Z,6.3
2019-02-25T04:52:42.810Z,6.3
2019-02-25T04:53:44.191Z,6.3
2019-02-25T04:54:45.576Z,6.3
2019-02-25T04:55:46.963Z,6.3
2019-02-25T04:56:48.357Z,6.3
2019-02-25T04:57:49.764Z,6.3
2019-02-25T04:58:51.157Z,6.3
2019-02-25T04:59:52.539Z,6.3
2019-02-25T05:00:53.924Z,6.2
2019-02-25T05:01:55.327Z,6.3
2019-02-25T05:02:56.714Z,6.2
2019-02-25T05:03:58.101Z,6.1
2019-02-25T05:04:59.484Z,6.2
2019-02-25T05:06:00.872Z,6.2
2019-02-25T05:07:02.324Z,6.2
2019-02-25T05:08:03.729Z,6.2
2019-02-25T05:09:05.112Z,6.2
2019-02-25T05:10:06.502Z,6.2
2019-02-25T05:11:07.889Z,6.2
2019-02-25T05:12:09.276Z,6.2
2019-02-25T05:13:10.656Z,6.2
2019-02-25T05:14:12.044Z,6.2
2019-02-25T05:15:13.431Z,6.2
2019-02-25T05:16:14.818Z,6.1
2019-02-25T05:17:16.203Z,6.1
2019-02-25T05:18:17.592Z,6.1
2019-02-25T05:19:18.985Z,6.1
2019-02-25T05:20:20.388Z,6.1
2019-02-25T05:21:21.763Z,6.1
2019-02-25T05:22:23.151Z,6.1
2019-02-25T05:23:24.535Z,6.0
2019-02-25T05:24:25.921Z,6.1
2019-02-25T05:25:27.306Z,6.1
2019-02-25T05:26:28.692Z,6.0
2019-02-25T05:27:30.074Z,6.0
2019-02-25T05:28:31.479Z,6.0
2019-02-25T05:29:32.862Z,6.1
2019-02-25T05:30:34.248Z,6.2
2019-02-25T05:31:35.633Z,6.2
2019-02-25T05:32:37.019Z,6.0
2019-02-25T05:33:38.407Z,6.0
2019-02-25T05:34:39.800Z,6.1
2019-02-25T05:35:41.216Z,6.1
2019-02-25T05:36:42.599Z,6.1
2019-02-25T05:37:43.990Z,6.0
2019-02-25T05:38:45.399Z,6.0
2019-02-25T05:39:46.785Z,6.0
2019-02-25T05:40:48.190Z,6.1
2019-02-25T05:41:49.583Z,6.1
2019-02-25T05:42:50.967Z,6.0
2019-02-25T05:43:52.359Z,6.1
2019-02-25T05:44:53.731Z,6.0
2019-02-25T05:45:55.234Z,6.0
2019-02-25T05:46:56.911Z,6.1
2019-02-25T05:47:58.254Z,6.1
2019-02-25T05:49:00.118Z,6.1
2019-02-25T05:50:01.508Z,6.1
2019-02-25T05:51:02.894Z,6.1
2019-02-25T05:52:04.284Z,6.1
2019-02-25T05:53:05.669Z,6.1
2019-02-25T05:54:07.093Z,6.0
2019-02-25T05:55:08.486Z,6.0
2019-02-25T05:56:10.681Z,6.1
2019-02-25T05:57:12.020Z,6.0
2019-02-25T05:58:13.582Z,6.0
2019-02-25T05:59:14.964Z,6.0
2019-02-25T06:00:16.357Z,6.0
2019-02-25T06:01:17.881Z,6.1
2019-02-25T06:02:19.266Z,5.9
2019-02-25T06:03:20.670Z,6.1
2019-02-25T06:04:22.062Z,6.0
2019-02-25T06:05:23.461Z,6.0
2019-02-25T06:06:24.850Z,6.0
2019-02-25T06:07:26.338Z,6.0
2019-02-25T06:08:28.172Z,6.0
2019-02-25T06:09:30.111Z,6.0
2019-02-25T06:10:32.722Z,6.0
2019-02-25T06:11:34.382Z,6.0
2019-02-25T06:12:36.975Z,6.0
2019-02-25T06:13:38.680Z,6.0
2019-02-25T06:14:40.392Z,5.9
2019-02-25T06:15:42.203Z,5.9
2019-02-25T06:16:43.894Z,5.9
2019-02-25T06:17:45.592Z,6.0
2019-02-25T06:18:47.518Z,5.9
2019-02-25T06:19:49.281Z,5.9
2019-02-25T06:20:50.704Z,5.9
2019-02-25T06:21:52.090Z,5.9
2019-02-25T06:22:53.483Z,5.9
2019-02-25T06:23:54.870Z,6.0
2019-02-25T06:24:56.267Z,5.9
2019-02-25T06:25:57.661Z,5.9
2019-02-25T06:26:59.044Z,5.8
2019-02-25T06:28:00.430Z,5.9
2019-02-25T06:29:01.822Z,5.9
2019-02-25T06:30:03.216Z,5.9
2019-02-25T06:31:04.595Z,5.8
2019-02-25T06:32:05.983Z,5.9
2019-02-25T06:33:07.370Z,5.9
2019-02-25T06:34:08.771Z,5.9
2019-02-25T06:35:10.146Z,6.0
2019-02-25T06:36:11.640Z,5.9
2019-02-25T06:37:13.027Z,5.9
2019-02-25T06:38:14.424Z,5.9
2019-02-25T06:39:15.812Z,5.8
2019-02-25T06:40:17.230Z,6.1
2019-02-25T06:41:18.610Z,6.1
2019-02-25T06:42:19.994Z,6.0
2019-02-25T06:43:21.382Z,6.1
2019-02-25T06:44:22.771Z,6.0
2019-02-25T06:45:24.167Z,6.0
2019-02-25T06:46:25.544Z,6.1
2019-02-25T06:47:26.956Z,6.0
2019-02-25T06:48:28.341Z,6.0
2019-02-25T06:49:29.729Z,6.0
2019-02-25T06:50:31.111Z,6.1
2019-02-25T06:51:32.520Z,6.1
2019-02-25T06:52:33.918Z,6.0
2019-02-25T06:53:35.313Z,5.9
2019-02-25T06:54:36.717Z,6.0
2019-02-25T06:55:38.103Z,6.0
2019-02-25T06:56:39.503Z,6.0
2019-02-25T06:57:40.893Z,6.0
2019-02-25T06:58:42.279Z,6.0
2019-02-25T06:59:43.702Z,6.0
2019-02-25T07:00:45.102Z,6.0
2019-02-25T07:01:46.501Z,6.0
2019-02-25T07:02:47.888Z,6.0
2019-02-25T07:03:49.279Z,6.0
2019-02-25T07:04:50.675Z,6.0
2019-02-25T07:05:52.083Z,6.0
2019-02-25T07:06:53.500Z,6.1
2019-02-25T07:07:54.898Z,6.1
2019-02-25T07:08:56.312Z,6.1
2019-02-25T07:09:57.712Z,6.0
2019-02-25T07:10:59.110Z,6.1
2019-02-25T07:12:00.514Z,6.0
2019-02-25T07:13:01.966Z,6.1
2019-02-25T07:14:03.374Z,6.1
2019-02-25T07:15:04.776Z,6.1
2019-02-25T07:16:06.201Z,6.2
2019-02-25T07:17:07.591Z,6.2
2019-02-25T07:18:09.000Z,6.2
2019-02-25T07:19:10.400Z,6.2
2019-02-25T07:20:11.800Z,6.1
2019-02-25T07:21:13.197Z,6.2
2019-02-25T07:22:14.655Z,6.2
2019-02-25T07:23:16.066Z,6.2
2019-02-25T07:24:17.446Z,6.3
2019-02-25T07:25:18.902Z,6.3
2019-02-25T07:26:20.355Z,6.3
2019-02-25T07:27:21.771Z,6.3
2019-02-25T07:28:23.176Z,6.4
2019-02-25T07:29:24.602Z,6.5
2019-02-25T07:30:26.072Z,6.5
2019-02-25T07:31:27.464Z,6.6
2019-02-25T07:32:30.128Z,6.6
2019-02-25T07:33:30.258Z,6.6
2019-02-25T07:34:31.671Z,6.7
2019-02-25T07:35:33.093Z,6.7
2019-02-25T07:36:34.473Z,6.7
2019-02-25T07:37:35.879Z,6.7
2019-02-25T07:38:39.321Z,6.8
2019-02-25T07:39:38.656Z,6.7
2019-02-25T07:40:40.090Z,6.7
2019-02-25T07:41:41.494Z,6.8
2019-02-25T07:42:42.884Z,6.9
2019-02-25T07:43:44.290Z,6.9
2019-02-25T07:44:45.730Z,6.9
2019-02-25T07:45:47.109Z,6.9
2019-02-25T07:46:48.533Z,7.0
2019-02-25T07:47:49.933Z,7.0
2019-02-25T07:48:51.328Z,7.1
2019-02-25T07:49:52.742Z,7.1
2019-02-25T07:50:54.137Z,7.2
2019-02-25T07:51:55.544Z,7.2
2019-02-25T07:52:56.968Z,7.3
2019-02-25T07:53:58.359Z,7.2
2019-02-25T07:54:59.794Z,7.3
2019-02-25T07:56:02.594Z,7.4
2019-02-25T07:57:02.581Z,7.5
2019-02-25T07:58:03.970Z,7.4
2019-02-25T07:59:05.372Z,7.5
2019-02-25T08:00:06.816Z,7.5
2019-02-25T08:01:08.210Z,7.6
2019-02-25T08:02:09.593Z,7.6
2019-02-25T08:03:11.029Z,7.7
2019-02-25T08:04:12.428Z,7.7
2019-02-25T08:05:13.857Z,7.8
2019-02-25T08:06:15.293Z,7.7
2019-02-25T08:07:16.683Z,7.8
2019-02-25T08:08:18.120Z,7.8
2019-02-25T08:09:19.523Z,7.8
2019-02-25T08:10:20.947Z,7.8
2019-02-25T08:11:22.351Z,8.0
2019-02-25T08:12:23.755Z,8.0
2019-02-25T08:13:25.157Z,8.0
2019-02-25T08:14:26.558Z,8.0
2019-02-25T08:15:28.093Z,8.1
2019-02-25T08:16:29.483Z,8.1
2019-02-25T08:17:30.899Z,8.2
2019-02-25T08:18:32.293Z,8.2
2019-02-25T08:19:33.703Z,8.2
2019-02-25T08:20:35.106Z,8.2
2019-02-25T08:21:36.529Z,8.2
2019-02-25T08:22:37.965Z,8.3
2019-02-25T08:23:39.337Z,8.3
2019-02-25T08:24:40.739Z,8.4
2019-02-25T08:25:42.126Z,8.4
2019-02-25T08:26:43.564Z,8.4
2019-02-25T08:27:44.969Z,8.4
2019-02-25T08:28:46.386Z,8.5
2019-02-25T08:29:47.801Z,8.5
2019-02-25T08:30:49.190Z,8.5
2019-02-25T08:31:50.601Z,8.6
2019-02-25T08:32:52.032Z,8.6
2019-02-25T08:33:55.399Z,8.7
2019-02-25T08:34:54.864Z,8.8
2019-02-25T08:35:56.296Z,8.8
2019-02-25T08:37:02.424Z,8.8
2019-02-25T08:37:59.056Z,8.9
2019-02-25T08:39:00.457Z,8.8
2019-02-25T08:40:01.881Z,8.9
2019-02-25T08:41:03.288Z,9.0
2019-02-25T08:42:04.758Z,9.0
2019-02-25T08:43:06.217Z,9.0
2019-02-25T08:44:07.614Z,9.1
2019-02-25T08:45:09.024Z,9.1
2019-02-25T08:46:10.431Z,9.2
2019-02-25T08:47:11.836Z,9.2
2019-02-25T08:48:13.247Z,9.2
2019-02-25T08:49:14.668Z,9.3
2019-02-25T08:50:16.056Z,9.3
2019-02-25T08:51:17.469Z,9.4
2019-02-25T08:52:18.865Z,9.4
2019-02-25T08:53:20.275Z,9.4
2019-02-25T08:54:21.687Z,9.5
2019-02-25T08:55:23.127Z,9.6
2019-02-25T08:56:24.543Z,9.7
2019-02-25T08:57:25.935Z,9.8
2019-02-25T08:58:27.378Z,9.8
2019-02-25T08:59:28.797Z,9.9
2019-02-25T09:00:30.196Z,9.9
2019-02-25T09:01:31.616Z,10.0
2019-02-25T09:02:33.025Z,10.1
2019-02-25T09:03:34.492Z,10.1
2019-02-25T09:04:35.953Z,10.2
2019-02-25T09:05:37.362Z,10.3
2019-02-25T09:06:38.759Z,10.3
2019-02-25T09:07:40.155Z,10.4
2019-02-25T09:08:41.564Z,10.5
2019-02-25T09:09:42.974Z,10.6
2019-02-25T09:10:44.418Z,10.7
2019-02-25T09:11:45.847Z,10.8
2019-02-25T09:12:48.766Z,10.9
2019-02-25T09:13:48.619Z,11.0
2019-02-25T09:14:50.016Z,11.1
2019-02-25T09:15:51.436Z,11.1
2019-02-25T09:16:52.875Z,11.2
2019-02-25T09:17:54.300Z,11.2
2019-02-25T09:18:55.701Z,11.4
2019-02-25T09:19:57.166Z,11.4
2019-02-25T09:20:58.583Z,11.6
2019-02-25T09:21:59.991Z,11.6
2019-02-25T09:23:01.391Z,11.7
2019-02-25T09:24:02.797Z,11.8
2019-02-25T09:25:04.195Z,11.8
2019-02-25T09:26:05.623Z,11.9
2019-02-25T09:27:07.031Z,12.0
2019-02-25T09:28:08.466Z,12.0
2019-02-25T09:29:09.866Z,12.1
2019-02-25T09:30:11.315Z,12.2
2019-02-25T09:31:12.738Z,12.2
2019-02-25T09:32:14.167Z,12.3
2019-02-25T09:33:15.562Z,12.5
2019-02-25T09:34:16.976Z,12.5
2019-02-25T09:35:18.443Z,12.5
2019-02-25T09:36:19.845Z,12.7
2019-02-25T09:37:21.244Z,12.7
2019-02-25T09:38:23.566Z,12.8
2019-02-25T09:39:24.026Z,12.8
2019-02-25T09:40:25.416Z,12.9
2019-02-25T09:41:29.892Z,12.9
2019-02-25T09:42:28.215Z,12.9
2019-02-25T09:43:29.617Z,12.9
2019-02-25T09:44:31.033Z,13.1
2019-02-25T09:45:32.472Z,13.1
2019-02-25T09:46:33.869Z,13.2
2019-02-25T09:47:35.287Z,13.3
2019-02-25T09:48:36.725Z,13.5
2019-02-25T09:49:38.132Z,13.5
2019-02-25T09:50:39.526Z,13.7
2019-02-25T09:51:41.016Z,13.9
2019-02-25T09:52:42.452Z,14.0
2019-02-25T09:53:43.887Z,14.3
2019-02-25T09:54:45.309Z,14.6
2019-02-25T09:55:46.763Z,14.8
2019-02-25T09:56:48.185Z,15.1
2019-02-25T09:57:49.626Z,15.4
2019-02-25T09:58:51.967Z,15.6
2019-02-25T09:59:52.401Z,15.9
2019-02-25T10:00:53.812Z,16.2
2019-02-25T10:01:55.204Z,16.2
2019-02-25T10:02:56.620Z,16.3
2019-02-25T10:03:58.066Z,16.4
2019-02-25T10:04:59.487Z,16.5
2019-02-25T10:06:00.910Z,16.7
2019-02-25T10:07:02.630Z,16.7
2019-02-25T10:08:03.774Z,16.8
2019-02-25T10:09:05.201Z,16.7
2019-02-25T10:10:06.624Z,16.8
2019-02-25T10:11:08.058Z,16.8
2019-02-25T10:12:09.469Z,17.0
2019-02-25T10:13:10.886Z,17.2
2019-02-25T10:14:12.351Z,17.4
2019-02-25T10:15:13.796Z,17.6
2019-02-25T10:16:15.250Z,17.7
2019-02-25T10:17:23.498Z,17.9
2019-02-25T10:18:18.088Z,17.9
2019-02-25T10:19:19.489Z,18.0
2019-02-25T10:20:20.925Z,18.3
2019-02-25T10:21:22.359Z,18.4
2019-02-25T10:22:23.786Z,18.6
2019-02-25T10:23:25.224Z,18.9
2019-02-25T10:24:26.664Z,19.4
2019-02-25T10:25:28.107Z,20.0
2019-02-25T10:26:29.515Z,20.6
2019-02-25T10:27:30.913Z,21.0
2019-02-25T10:28:32.332Z,21.7
2019-02-25T10:29:33.771Z,22.2
2019-02-25T10:30:35.164Z,22.8
2019-02-25T10:31:38.067Z,23.4
2019-02-25T10:32:37.960Z,23.8
2019-02-25T10:33:39.444Z,24.5
2019-02-25T10:34:40.956Z,24.9
2019-02-25T10:35:42.367Z,25.4
2019-02-25T10:36:44.015Z,25.9
2019-02-25T10:37:45.203Z,26.1
2019-02-25T10:38:46.800Z,26.3
2019-02-25T10:39:49.461Z,26.5
2019-02-25T10:40:51.173Z,26.8
2019-02-25T10:41:51.160Z,27.1
2019-02-25T10:42:52.396Z,27.3
2019-02-25T10:43:54.025Z,27.7
2019-02-25T10:44:55.458Z,27.9
2019-02-25T10:45:56.894Z,28.2
2019-02-25T10:46:58.316Z,28.5
2019-02-25T10:47:59.769Z,28.9
2019-02-25T10:49:10.979Z,29.0
2019-02-25T10:50:03.294Z,29.3
2019-02-25T10:51:04.911Z,29.5
2019-02-25T10:52:06.551Z,29.7
2019-02-25T10:53:06.815Z,30.0
2019-02-25T10:54:08.229Z,29.9
2019-02-25T10:55:09.638Z,29.9
2019-02-25T10:56:11.074Z,30.1
2019-02-25T10:57:12.507Z,30.4
2019-02-25T10:58:13.988Z,30.5
2019-02-25T10:59:15.417Z,30.6
2019-02-25T11:00:16.842Z,30.6
2019-02-25T11:01:19.862Z,30.8
2019-02-25T11:02:19.711Z,31.0
2019-02-25T11:03:21.729Z,31.2
2019-02-25T11:04:23.912Z,31.3
2019-02-25T11:05:25.589Z,31.6
2019-02-25T11:06:26.923Z,31.9
2019-02-25T11:07:26.972Z,32.2
2019-02-25T11:08:28.439Z,32.3
2019-02-25T11:09:29.911Z,32.7
2019-02-25T11:10:31.348Z,32.8
2019-02-25T11:11:32.776Z,32.6
2019-02-25T11:12:34.203Z,32.9
2019-02-25T11:13:36.656Z,33.1
2019-02-25T11:14:38.956Z,33.3
2019-02-25T11:15:39.766Z,33.2
2019-02-25T11:16:41.847Z,33.4
2019-02-25T11:17:41.228Z,33.4
2019-02-25T11:18:42.671Z,33.6
2019-02-25T11:19:44.100Z,33.5
2019-02-25T11:20:45.546Z,33.3
2019-02-25T11:21:47.019Z,33.0
2019-02-25T11:22:48.528Z,32.5
2019-02-25T11:23:51.161Z,31.8
2019-02-25T11:24:53.323Z,31.1
2019-02-25T11:25:53.705Z,30.3
2019-02-25T11:26:54.214Z,29.6
2019-02-25T11:27:55.639Z,29.0
2019-02-25T11:28:57.072Z,28.5
2019-02-25T11:29:58.527Z,28.0
2019-02-25T11:30:59.948Z,27.7
2019-02-25T11:32:01.407Z,27.3
2019-02-25T11:33:02.805Z,27.0
2019-02-25T11:34:05.714Z,26.9
2019-02-25T11:35:06.293Z,27.0
2019-02-25T11:36:07.057Z,27.5
2019-02-25T11:37:08.488Z,28.0
2019-02-25T11:38:09.899Z,28.6
2019-02-25T11:39:11.355Z,29.3
2019-02-25T11:40:12.771Z,29.9
2019-02-25T11:41:14.184Z,30.5
2019-02-25T11:42:17.420Z,30.9
2019-02-25T11:43:18.624Z,31.3
2019-02-25T11:44:18.948Z,31.5
2019-02-25T11:45:19.768Z,30.9
2019-02-25T11:46:21.189Z,30.4
2019-02-25T11:47:22.616Z,29.6
2019-02-25T11:48:24.076Z,28.9
2019-02-25T11:49:25.487Z,28.3
2019-02-25T11:50:26.923Z,27.8
2019-02-25T11:51:28.322Z,27.4
2019-02-25T11:52:29.737Z,26.9
2019-02-25T11:53:31.194Z,26.6
2019-02-25T11:54:32.624Z,26.3
2019-02-25T11:55:34.039Z,26.1
2019-02-25T11:56:35.477Z,25.9
2019-02-25T11:57:36.914Z,25.6
2019-02-25T11:58:38.332Z,25.5
2019-02-25T11:59:39.814Z,25.3
2019-02-25T12:00:41.258Z,24.9
2019-02-25T12:01:42.700Z,24.8
2019-02-25T12:02:44.154Z,24.7
2019-02-25T12:03:45.602Z,24.7
2019-02-25T12:04:48.396Z,24.6
2019-02-25T12:05:48.497Z,24.3
2019-02-25T12:06:49.936Z,24.2
2019-02-25T12:07:51.329Z,24.2
2019-02-25T12:08:52.821Z,24.2
2019-02-25T12:09:54.252Z,23.9
2019-02-25T12:10:55.803Z,24.0
2019-02-25T12:11:57.218Z,23.8
2019-02-25T12:12:58.666Z,23.8
2019-02-25T12:14:00.078Z,23.8
2019-02-25T12:15:01.487Z,23.8
2019-02-25T12:16:02.905Z,23.7
2019-02-25T12:17:04.337Z,23.7
2019-02-25T12:18:05.823Z,23.7
2019-02-25T12:19:07.228Z,23.7
2019-02-25T12:20:08.658Z,23.7
2019-02-25T12:21:10.065Z,23.6
2019-02-25T12:22:11.513Z,23.6
2019-02-25T12:23:12.936Z,23.7
2019-02-25T12:24:14.385Z,23.8
2019-02-25T12:25:15.781Z,23.8
2019-02-25T12:26:17.217Z,23.7
2019-02-25T12:27:18.652Z,23.7
2019-02-25T12:28:20.064Z,23.6
2019-02-25T12:29:21.483Z,23.7
2019-02-25T12:30:22.894Z,23.7
2019-02-25T12:31:24.315Z,23.6
2019-02-25T12:32:25.757Z,23.6
2019-02-25T12:33:27.169Z,23.7
2019-02-25T12:34:28.586Z,23.6
2019-02-25T12:35:30.015Z,23.5
2019-02-25T12:36:31.419Z,23.5
2019-02-25T12:37:32.843Z,23.5
2019-02-25T12:38:34.279Z,23.4
2019-02-25T12:39:35.672Z,23.5
2019-02-25T12:40:37.080Z,23.6
2019-02-25T12:41:38.533Z,23.7
2019-02-25T12:42:39.971Z,23.7
2019-02-25T12:43:41.444Z,23.7
2019-02-25T12:44:42.882Z,23.6
2019-02-25T12:45:44.393Z,23.7
2019-02-25T12:46:45.827Z,23.6
2019-02-25T12:47:47.240Z,23.6
2019-02-25T12:48:48.667Z,23.6
2019-02-25T12:49:50.114Z,23.7
2019-02-25T12:50:51.540Z,23.7
2019-02-25T12:51:52.947Z,23.7
2019-02-25T12:52:54.373Z,23.7
2019-02-25T12:53:55.774Z,23.6
2019-02-25T12:54:57.175Z,23.7
2019-02-25T12:55:58.588Z,23.9
2019-02-25T12:57:00.121Z,23.8
2019-02-25T12:58:01.619Z,23.9
2019-02-25T12:59:05.082Z,24.0
2019-02-25T13:00:04.418Z,23.9
2019-02-25T13:01:05.854Z,23.9
2019-02-25T13:02:07.276Z,23.8
2019-02-25T13:03:08.666Z,23.9
2019-02-25T13:04:10.090Z,24.0
2019-02-25T13:05:11.524Z,23.9
2019-02-25T13:06:12.949Z,23.9
2019-02-25T13:07:14.383Z,23.8
2019-02-25T13:08:15.818Z,23.8
2019-02-25T13:09:17.247Z,23.9
2019-02-25T13:10:18.694Z,23.8
2019-02-25T13:11:20.104Z,23.9
2019-02-25T13:12:21.502Z,24.0
2019-02-25T13:13:22.930Z,23.8
2019-02-25T13:14:24.339Z,23.8
2019-02-25T13:15:25.758Z,23.8
2019-02-25T13:16:27.165Z,23.8
2019-02-25T13:17:28.596Z,23.9
2019-02-25T13:18:30.015Z,23.9
2019-02-25T13:19:31.444Z,23.9
2019-02-25T13:20:32.909Z,23.9
2019-02-25T13:21:34.349Z,24.1
2019-02-25T13:22:35.836Z,24.1
2019-02-25T13:23:37.293Z,24.1
2019-02-25T13:24:39.517Z,24.1
2019-02-25T13:25:40.124Z,24.2
2019-02-25T13:26:41.525Z,24.2
2019-02-25T13:27:42.934Z,24.2
2019-02-25T13:28:44.381Z,24.2
2019-02-25T13:29:45.820Z,24.3
2019-02-25T13:30:47.147Z,24.4
2019-02-25T13:31:48.622Z,24.4
2019-02-25T13:32:49.951Z,24.5
2019-02-25T13:33:51.414Z,24.6
2019-02-25T13:34:52.824Z,24.6
2019-02-25T13:35:54.223Z,24.7
2019-02-25T13:36:55.637Z,24.7
2019-02-25T13:37:57.025Z,24.7
2019-02-25T13:38:58.447Z,24.6
2019-02-25T13:39:59.899Z,24.6
2019-02-25T13:41:01.304Z,24.7
2019-02-25T13:42:02.723Z,24.8
2019-02-25T13:43:04.206Z,24.8
2019-02-25T13:44:05.626Z,24.8
2019-02-25T13:45:07.159Z,24.8
2019-02-25T13:46:08.583Z,24.8
2019-02-25T13:47:10.065Z,24.7
2019-02-25T13:48:11.479Z,24.7
2019-02-25T13:49:12.893Z,24.7
2019-02-25T13:50:14.330Z,24.7
2019-02-25T13:51:15.792Z,24.7
2019-02-25T13:52:17.228Z,24.8
2019-02-25T13:53:18.648Z,24.8
2019-02-25T13:54:20.053Z,24.8
2019-02-25T13:55:21.443Z,24.8